sensor_id;sensor_type;location;lat;lon;timestamp;temperature;humidity
19728;DHT22;10015;52.530;13.390;2023-04-01T00:00:31;12.40;99.90
19728;DHT22;10015;52.530;13.390;2023-04-01T00:02:57;12.40;99.90
19728;DHT22;10015;52.530;13.390;2023-04-01T00:05:23;12.40;99.90
19728;DHT22;10015;52.530;13.390;2023-04-01T00:07:50;12.30;99.90
19728;DHT22;10015;52.530;13.390;2023-04-01T00:10:16;12.30;99.90
19728;DHT22;10015;52.530;13.390;2023-04-01T00:12:42;12.30;99.90
19728;DHT22;10015;52.530;13.390;2023-04-01T00:15:10;12.30;99.90
19728;DHT22;10015;52.530;13.390;2023-04-01T00:17:37;12.40;99.90
19728;DHT22;10015;52.530;13.390;2023-04-01T00:20:04;12.40;99.90
19728;DHT22;10015;52.530;13.390;2023-04-01T00:22:30;12.40;99.90
19728;DHT22;10015;52.530;13.390;2023-04-01T00:24:56;12.40;99.90
19728;DHT22;10015;52.530;13.390;2023-04-01T00:27:22;12.40;99.90
19728;DHT22;10015;52.530;13.390;2023-04-01T00:29:47;12.40;99.90
19728;DHT22;10015;52.530;13.390;2023-04-01T00:32:14;12.40;99.90
19728;DHT22;10015;52.530;13.390;2023-04-01T00:34:40;12.40;99.90
19728;DHT22;10015;52.530;13.390;2023-04-01T00:37:07;12.40;99.90
19728;DHT22;10015;52.530;13.390;2023-04-01T00:39:34;12.40;99.90
19728;DHT22;10015;52.530;13.390;2023-04-01T00:42:02;12.30;99.90
19728;DHT22;10015;52.530;13.390;2023-04-01T00:44:31;12.30;99.90
19728;DHT22;10015;52.530;13.390;2023-04-01T00:46:59;12.30;99.90
19728;DHT22;10015;52.530;13.390;2023-04-01T00:49:33;12.30;99.90
19728;DHT22;10015;52.530;13.390;2023-04-01T00:52:02;12.30;99.90
19728;DHT22;10015;52.530;13.390;2023-04-01T00:54:30;12.30;99.90
19728;DHT22;10015;52.530;13.390;2023-04-01T00:57:02;12.30;99.90
19728;DHT22;10015;52.530;13.390;2023-04-01T00:59:37;12.40;99.90
19728;DHT22;10015;52.530;13.390;2023-04-01T01:02:07;12.30;99.90
19728;DHT22;10015;52.530;13.390;2023-04-01T01:04:35;12.40;99.90
19728;DHT22;10015;52.530;13.390;2023-04-01T01:10:26;12.40;99.90
19728;DHT22;10015;52.530;13.390;2023-04-01T01:13:25;12.30;99.90
19728;DHT22;10015;52.530;13.390;2023-04-01T01:16:02;12.30;99.90
19728;DHT22;10015;52.530;13.390;2023-04-01T01:19:07;12.30;99.90
19728;DHT22;10015;52.530;13.390;2023-04-01T01:21:43;12.30;99.90
19728;DHT22;10015;52.530;13.390;2023-04-01T01:37:40;12.30;99.90
19728;DHT22;10015;52.530;13.390;2023-04-01T01:40:10;12.30;99.90
19728;DHT22;10015;52.530;13.390;2023-04-01T01:42:41;12.30;99.90
19728;DHT22;10015;52.530;13.390;2023-04-01T01:45:11;12.30;99.90
19728;DHT22;10015;52.530;13.390;2023-04-01T01:47:39;12.30;99.90
19728;DHT22;10015;52.530;13.390;2023-04-01T01:50:07;12.30;99.90
19728;DHT22;10015;52.530;13.390;2023-04-01T01:52:33;12.30;99.90
19728;DHT22;10015;52.530;13.390;2023-04-01T01:54:59;12.30;99.90
19728;DHT22;10015;52.530;13.390;2023-04-01T01:57:34;12.20;99.90
19728;DHT22;10015;52.530;13.390;2023-04-01T02:00:09;12.20;99.90
19728;DHT22;10015;52.530;13.390;2023-04-01T02:02:46;12.30;99.90
19728;DHT22;10015;52.530;13.390;2023-04-01T02:05:20;12.30;99.90
19728;DHT22;10015;52.530;13.390;2023-04-01T02:07:52;12.30;99.90
19728;DHT22;10015;52.530;13.390;2023-04-01T02:10:22;12.30;99.90
19728;DHT22;10015;52.530;13.390;2023-04-01T02:12:53;12.30;99.90
19728;DHT22;10015;52.530;13.390;2023-04-01T02:15:21;12.30;99.90
19728;DHT22;10015;52.530;13.390;2023-04-01T02:17:49;12.30;99.90
19728;DHT22;10015;52.530;13.390;2023-04-01T02:20:19;12.30;99.90
19728;DHT22;10015;52.530;13.390;2023-04-01T02:22:49;12.30;99.90
19728;DHT22;10015;52.530;13.390;2023-04-01T02:25:20;12.30;99.90
19728;DHT22;10015;52.530;13.390;2023-04-01T02:27:48;12.30;99.90
19728;DHT22;10015;52.530;13.390;2023-04-01T02:30:15;12.20;99.90
19728;DHT22;10015;52.530;13.390;2023-04-01T02:32:42;12.20;99.90
19728;DHT22;10015;52.530;13.390;2023-04-01T02:35:13;12.20;99.90
19728;DHT22;10015;52.530;13.390;2023-04-01T02:37:42;12.20;99.90
19728;DHT22;10015;52.530;13.390;2023-04-01T02:40:11;12.20;99.90
19728;DHT22;10015;52.530;13.390;2023-04-01T02:42:37;12.20;99.90
19728;DHT22;10015;52.530;13.390;2023-04-01T02:45:04;12.30;99.90
19728;DHT22;10015;52.530;13.390;2023-04-01T02:47:31;12.30;99.90
19728;DHT22;10015;52.530;13.390;2023-04-01T02:49:57;12.20;99.90
19728;DHT22;10015;52.530;13.390;2023-04-01T02:52:27;12.30;99.90
19728;DHT22;10015;52.530;13.390;2023-04-01T02:54:54;12.30;99.90
19728;DHT22;10015;52.530;13.390;2023-04-01T02:57:21;12.20;99.90
19728;DHT22;10015;52.530;13.390;2023-04-01T02:59:47;12.30;99.90
19728;DHT22;10015;52.530;13.390;2023-04-01T03:02:13;12.20;99.90
19728;DHT22;10015;52.530;13.390;2023-04-01T03:04:40;12.30;99.90
19728;DHT22;10015;52.530;13.390;2023-04-01T03:07:06;12.30;99.90
19728;DHT22;10015;52.530;13.390;2023-04-01T03:09:32;12.30;99.90
19728;DHT22;10015;52.530;13.390;2023-04-01T03:11:58;12.30;99.90
19728;DHT22;10015;52.530;13.390;2023-04-01T03:14:24;12.30;99.90
19728;DHT22;10015;52.530;13.390;2023-04-01T03:16:50;12.30;99.90
19728;DHT22;10015;52.530;13.390;2023-04-01T03:19:16;12.30;99.90
19728;DHT22;10015;52.530;13.390;2023-04-01T03:21:42;12.30;99.90
19728;DHT22;10015;52.530;13.390;2023-04-01T03:24:08;12.30;99.90
19728;DHT22;10015;52.530;13.390;2023-04-01T03:26:34;12.30;99.90
19728;DHT22;10015;52.530;13.390;2023-04-01T03:29:00;12.30;99.90
19728;DHT22;10015;52.530;13.390;2023-04-01T03:31:26;12.30;99.90
19728;DHT22;10015;52.530;13.390;2023-04-01T03:33:55;12.30;99.90
19728;DHT22;10015;52.530;13.390;2023-04-01T03:36:21;12.20;99.90
19728;DHT22;10015;52.530;13.390;2023-04-01T03:38:48;12.20;99.90
19728;DHT22;10015;52.530;13.390;2023-04-01T03:41:19;12.20;99.90
19728;DHT22;10015;52.530;13.390;2023-04-01T03:43:46;12.20;99.90
19728;DHT22;10015;52.530;13.390;2023-04-01T03:46:17;12.20;99.90
19728;DHT22;10015;52.530;13.390;2023-04-01T03:48:43;12.20;99.90
19728;DHT22;10015;52.530;13.390;2023-04-01T03:51:10;12.20;99.90
19728;DHT22;10015;52.530;13.390;2023-04-01T03:53:36;12.20;99.90
19728;DHT22;10015;52.530;13.390;2023-04-01T03:56:06;12.20;99.90
19728;DHT22;10015;52.530;13.390;2023-04-01T03:58:34;12.20;99.90
19728;DHT22;10015;52.530;13.390;2023-04-01T04:01:01;12.10;99.90
19728;DHT22;10015;52.530;13.390;2023-04-01T04:03:27;12.10;99.90
19728;DHT22;10015;52.530;13.390;2023-04-01T04:05:53;12.10;99.90
19728;DHT22;10015;52.530;13.390;2023-04-01T04:08:21;12.10;99.90
19728;DHT22;10015;52.530;13.390;2023-04-01T04:10:47;12.00;99.90
19728;DHT22;10015;52.530;13.390;2023-04-01T04:13:19;12.00;99.90
19728;DHT22;10015;52.530;13.390;2023-04-01T04:15:53;12.00;99.90
19728;DHT22;10015;52.530;13.390;2023-04-01T04:18:19;12.10;99.90
19728;DHT22;10015;52.530;13.390;2023-04-01T04:20:46;12.10;99.90
19728;DHT22;10015;52.530;13.390;2023-04-01T04:23:18;12.10;99.90
19728;DHT22;10015;52.530;13.390;2023-04-01T04:25:58;12.10;99.90
19728;DHT22;10015;52.530;13.390;2023-04-01T04:28:26;12.00;99.90
19728;DHT22;10015;52.530;13.390;2023-04-01T04:30:53;12.00;99.90
19728;DHT22;10015;52.530;13.390;2023-04-01T04:33:20;12.00;99.90
19728;DHT22;10015;52.530;13.390;2023-04-01T04:35:46;12.10;99.90
19728;DHT22;10015;52.530;13.390;2023-04-01T04:38:13;12.10;99.90
19728;DHT22;10015;52.530;13.390;2023-04-01T04:40:40;12.10;99.90
19728;DHT22;10015;52.530;13.390;2023-04-01T04:43:06;12.10;99.90
19728;DHT22;10015;52.530;13.390;2023-04-01T04:45:32;12.10;99.90
19728;DHT22;10015;52.530;13.390;2023-04-01T04:47:59;12.20;99.90
19728;DHT22;10015;52.530;13.390;2023-04-01T04:50:25;12.20;99.90
19728;DHT22;10015;52.530;13.390;2023-04-01T04:52:51;12.20;99.90
19728;DHT22;10015;52.530;13.390;2023-04-01T04:55:18;12.20;99.90
19728;DHT22;10015;52.530;13.390;2023-04-01T04:57:48;12.20;99.90
19728;DHT22;10015;52.530;13.390;2023-04-01T05:00:14;12.20;99.90
19728;DHT22;10015;52.530;13.390;2023-04-01T05:02:49;12.20;99.90
19728;DHT22;10015;52.530;13.390;2023-04-01T05:05:14;12.20;99.90
19728;DHT22;10015;52.530;13.390;2023-04-01T05:07:40;12.20;99.90
19728;DHT22;10015;52.530;13.390;2023-04-01T05:10:06;12.30;99.90
19728;DHT22;10015;52.530;13.390;2023-04-01T05:12:32;12.30;99.90
19728;DHT22;10015;52.530;13.390;2023-04-01T05:15:04;12.30;99.90
19728;DHT22;10015;52.530;13.390;2023-04-01T05:17:30;12.30;99.90
19728;DHT22;10015;52.530;13.390;2023-04-01T05:19:57;12.30;99.90
19728;DHT22;10015;52.530;13.390;2023-04-01T05:22:23;12.30;99.90
19728;DHT22;10015;52.530;13.390;2023-04-01T05:24:49;12.30;99.90
19728;DHT22;10015;52.530;13.390;2023-04-01T05:27:16;12.30;99.90
19728;DHT22;10015;52.530;13.390;2023-04-01T05:29:42;12.30;99.90
19728;DHT22;10015;52.530;13.390;2023-04-01T05:32:22;12.30;99.90
19728;DHT22;10015;52.530;13.390;2023-04-01T05:34:52;12.30;99.90
19728;DHT22;10015;52.530;13.390;2023-04-01T05:37:19;12.30;99.90
19728;DHT22;10015;52.530;13.390;2023-04-01T05:39:45;12.40;99.90
19728;DHT22;10015;52.530;13.390;2023-04-01T05:42:11;12.40;99.90
19728;DHT22;10015;52.530;13.390;2023-04-01T05:44:39;12.40;99.90
19728;DHT22;10015;52.530;13.390;2023-04-01T05:47:05;12.40;99.90
19728;DHT22;10015;52.530;13.390;2023-04-01T05:49:33;12.40;99.90
19728;DHT22;10015;52.530;13.390;2023-04-01T05:52:00;12.40;99.90
19728;DHT22;10015;52.530;13.390;2023-04-01T05:54:27;12.40;99.90
19728;DHT22;10015;52.530;13.390;2023-04-01T05:56:53;12.40;99.90
19728;DHT22;10015;52.530;13.390;2023-04-01T05:59:19;12.40;99.90
19728;DHT22;10015;52.530;13.390;2023-04-01T06:01:45;12.40;99.90
19728;DHT22;10015;52.530;13.390;2023-04-01T06:04:16;12.40;99.90
19728;DHT22;10015;52.530;13.390;2023-04-01T06:06:43;12.40;99.90
19728;DHT22;10015;52.530;13.390;2023-04-01T06:09:18;12.40;99.90
19728;DHT22;10015;52.530;13.390;2023-04-01T06:12:16;12.40;99.90
19728;DHT22;10015;52.530;13.390;2023-04-01T06:18:03;12.40;99.90
19728;DHT22;10015;52.530;13.390;2023-04-01T06:26:08;12.40;99.90
19728;DHT22;10015;52.530;13.390;2023-04-01T06:34:16;12.40;99.90
19728;DHT22;10015;52.530;13.390;2023-04-01T06:43:13;12.40;99.90
19728;DHT22;10015;52.530;13.390;2023-04-01T06:52:41;12.40;99.90
19728;DHT22;10015;52.530;13.390;2023-04-01T06:55:41;12.40;99.90
19728;DHT22;10015;52.530;13.390;2023-04-01T06:59:04;12.40;99.90
19728;DHT22;10015;52.530;13.390;2023-04-01T07:01:14;12.50;99.90
19728;DHT22;10015;52.530;13.390;2023-04-01T07:03:53;12.50;99.90
19728;DHT22;10015;52.530;13.390;2023-04-01T07:06:36;12.40;99.90
19728;DHT22;10015;52.530;13.390;2023-04-01T07:09:08;12.40;99.90
19728;DHT22;10015;52.530;13.390;2023-04-01T07:12:19;12.50;99.90
19728;DHT22;10015;52.530;13.390;2023-04-01T07:15:19;12.50;99.90
19728;DHT22;10015;52.530;13.390;2023-04-01T07:17:48;12.50;99.90
19728;DHT22;10015;52.530;13.390;2023-04-01T07:20:32;12.50;99.90
19728;DHT22;10015;52.530;13.390;2023-04-01T07:23:05;12.50;99.90
19728;DHT22;10015;52.530;13.390;2023-04-01T07:26:00;12.50;99.90
19728;DHT22;10015;52.530;13.390;2023-04-01T07:28:32;12.50;99.90
19728;DHT22;10015;52.530;13.390;2023-04-01T07:37:15;12.50;99.90
19728;DHT22;10015;52.530;13.390;2023-04-01T07:45:23;12.60;99.90
19728;DHT22;10015;52.530;13.390;2023-04-01T07:50:53;12.60;99.90
19728;DHT22;10015;52.530;13.390;2023-04-01T07:56:05;12.70;99.90
19728;DHT22;10015;52.530;13.390;2023-04-01T08:01:34;12.70;99.90
19728;DHT22;10015;52.530;13.390;2023-04-01T08:06:59;12.60;99.90
19728;DHT22;10015;52.530;13.390;2023-04-01T08:09:53;12.60;99.90
19728;DHT22;10015;52.530;13.390;2023-04-01T08:16:20;12.50;99.90
19728;DHT22;10015;52.530;13.390;2023-04-01T08:21:58;12.50;99.90
19728;DHT22;10015;52.530;13.390;2023-04-01T08:24:38;12.30;99.90
19728;DHT22;10015;52.530;13.390;2023-04-01T08:29:48;12.00;99.90
19728;DHT22;10015;52.530;13.390;2023-04-01T08:32:16;12.00;99.90
19728;DHT22;10015;52.530;13.390;2023-04-01T08:34:47;11.90;99.90
19728;DHT22;10015;52.530;13.390;2023-04-01T08:37:28;11.80;99.90
19728;DHT22;10015;52.530;13.390;2023-04-01T08:40:46;11.80;99.90
19728;DHT22;10015;52.530;13.390;2023-04-01T09:07:40;11.40;99.90
19728;DHT22;10015;52.530;13.390;2023-04-01T09:10:41;11.50;99.90
19728;DHT22;10015;52.530;13.390;2023-04-01T09:14:03;11.50;99.90
19728;DHT22;10015;52.530;13.390;2023-04-01T09:25:22;11.60;99.90
19728;DHT22;10015;52.530;13.390;2023-04-01T09:35:47;11.70;99.90
19728;DHT22;10015;52.530;13.390;2023-04-01T09:40:57;11.80;99.90
19728;DHT22;10015;52.530;13.390;2023-04-01T09:44:09;11.60;99.90
19728;DHT22;10015;52.530;13.390;2023-04-01T09:47:16;11.50;99.90
19728;DHT22;10015;52.530;13.390;2023-04-01T09:49:59;11.30;99.90
19728;DHT22;10015;52.530;13.390;2023-04-01T10:02:20;11.20;99.90
19728;DHT22;10015;52.530;13.390;2023-04-01T10:18:48;11.10;99.90
19728;DHT22;10015;52.530;13.390;2023-04-01T10:33:08;10.90;99.90
19728;DHT22;10015;52.530;13.390;2023-04-01T10:41:48;10.80;99.90
19728;DHT22;10015;52.530;13.390;2023-04-01T10:47:46;10.70;99.90
19728;DHT22;10015;52.530;13.390;2023-04-01T10:53:30;10.70;99.90
19728;DHT22;10015;52.530;13.390;2023-04-01T10:56:40;10.70;99.90
19728;DHT22;10015;52.530;13.390;2023-04-01T11:08:29;10.80;99.90
19728;DHT22;10015;52.530;13.390;2023-04-01T11:31:52;10.70;99.90
19728;DHT22;10015;52.530;13.390;2023-04-01T11:37:43;10.60;99.90
19728;DHT22;10015;52.530;13.390;2023-04-01T11:40:42;10.60;99.90
19728;DHT22;10015;52.530;13.390;2023-04-01T11:53:14;10.40;99.90
19728;DHT22;10015;52.530;13.390;2023-04-01T11:55:59;10.40;99.90
19728;DHT22;10015;52.530;13.390;2023-04-01T12:01:20;10.40;99.90
19728;DHT22;10015;52.530;13.390;2023-04-01T12:06:49;10.20;99.90
19728;DHT22;10015;52.530;13.390;2023-04-01T12:09:52;10.30;99.90
19728;DHT22;10015;52.530;13.390;2023-04-01T12:15:50;10.30;99.90
19728;DHT22;10015;52.530;13.390;2023-04-01T12:37:49;10.10;99.90
19728;DHT22;10015;52.530;13.390;2023-04-01T12:40:24;10.10;99.90
19728;DHT22;10015;52.530;13.390;2023-04-01T12:45:49;10.00;99.90
19728;DHT22;10015;52.530;13.390;2023-04-01T12:51:24;10.00;99.90
19728;DHT22;10015;52.530;13.390;2023-04-01T12:54:14;9.90;99.90
19728;DHT22;10015;52.530;13.390;2023-04-01T12:59:51;10.00;99.90
19728;DHT22;10015;52.530;13.390;2023-04-01T13:07:59;9.80;99.90
19728;DHT22;10015;52.530;13.390;2023-04-01T13:10:38;9.80;99.90
19728;DHT22;10015;52.530;13.390;2023-04-01T13:16:14;9.80;99.90
19728;DHT22;10015;52.530;13.390;2023-04-01T13:29:46;9.70;99.90
19728;DHT22;10015;52.530;13.390;2023-04-01T13:37:54;9.70;99.90
19728;DHT22;10015;52.530;13.390;2023-04-01T13:43:02;9.60;99.90
19728;DHT22;10015;52.530;13.390;2023-04-01T13:48:43;9.60;99.90
19728;DHT22;10015;52.530;13.390;2023-04-01T13:51:37;9.50;99.90
19728;DHT22;10015;52.530;13.390;2023-04-01T13:57:14;9.70;99.90
19728;DHT22;10015;52.530;13.390;2023-04-01T14:00:15;9.70;99.90
19728;DHT22;10015;52.530;13.390;2023-04-01T14:08:45;9.60;99.90
19728;DHT22;10015;52.530;13.390;2023-04-01T14:25:46;9.70;99.90
19728;DHT22;10015;52.530;13.390;2023-04-01T14:31:34;9.60;99.90
19728;DHT22;10015;52.530;13.390;2023-04-01T14:37:10;9.50;99.90
19728;DHT22;10015;52.530;13.390;2023-04-01T14:40:02;9.50;99.90
19728;DHT22;10015;52.530;13.390;2023-04-01T14:42:45;9.40;99.90
19728;DHT22;10015;52.530;13.390;2023-04-01T14:48:34;9.40;99.90
19728;DHT22;10015;52.530;13.390;2023-04-01T14:51:32;9.50;99.90
19728;DHT22;10015;52.530;13.390;2023-04-01T14:54:06;9.50;99.90
19728;DHT22;10015;52.530;13.390;2023-04-01T14:56:47;9.30;99.90
19728;DHT22;10015;52.530;13.390;2023-04-01T15:05:32;9.30;99.90
19728;DHT22;10015;52.530;13.390;2023-04-01T15:08:28;9.30;99.90
19728;DHT22;10015;52.530;13.390;2023-04-01T15:11:16;9.30;99.90
19728;DHT22;10015;52.530;13.390;2023-04-01T15:13:56;9.30;99.90
19728;DHT22;10015;52.530;13.390;2023-04-01T15:16:51;9.30;99.90
19728;DHT22;10015;52.530;13.390;2023-04-01T15:19:38;9.20;99.90
19728;DHT22;10015;52.530;13.390;2023-04-01T15:27:51;9.10;99.90
19728;DHT22;10015;52.530;13.390;2023-04-01T15:44:53;8.90;99.90
19728;DHT22;10015;52.530;13.390;2023-04-01T16:01:15;8.80;99.90
19728;DHT22;10015;52.530;13.390;2023-04-01T16:07:04;8.60;99.90
19728;DHT22;10015;52.530;13.390;2023-04-01T16:09:52;8.60;99.90
19728;DHT22;10015;52.530;13.390;2023-04-01T16:15:57;8.60;99.90
19728;DHT22;10015;52.530;13.390;2023-04-01T16:24:00;8.40;99.90
19728;DHT22;10015;52.530;13.390;2023-04-01T16:26:50;8.50;99.90
19728;DHT22;10015;52.530;13.390;2023-04-01T16:29:27;8.50;99.90
19728;DHT22;10015;52.530;13.390;2023-04-01T16:35:23;8.40;99.90
19728;DHT22;10015;52.530;13.390;2023-04-01T16:38:11;8.50;99.90
19728;DHT22;10015;52.530;13.390;2023-04-01T16:51:44;8.20;99.90
19728;DHT22;10015;52.530;13.390;2023-04-01T16:57:17;8.20;99.90
19728;DHT22;10015;52.530;13.390;2023-04-01T17:02:54;8.10;99.90
19728;DHT22;10015;52.530;13.390;2023-04-01T17:05:52;8.10;99.90
19728;DHT22;10015;52.530;13.390;2023-04-01T17:08:58;8.00;99.90
19728;DHT22;10015;52.530;13.390;2023-04-01T17:11:24;7.90;99.90
19728;DHT22;10015;52.530;13.390;2023-04-01T17:16:51;7.80;99.90
19728;DHT22;10015;52.530;13.390;2023-04-01T17:19:45;7.80;99.90
19728;DHT22;10015;52.530;13.390;2023-04-01T17:25:33;7.80;99.90
19728;DHT22;10015;52.530;13.390;2023-04-01T17:33:54;7.60;99.90
19728;DHT22;10015;52.530;13.390;2023-04-01T17:39:25;7.50;99.90
19728;DHT22;10015;52.530;13.390;2023-04-01T17:42:15;7.40;99.90
19728;DHT22;10015;52.530;13.390;2023-04-01T17:44:57;7.40;99.90
19728;DHT22;10015;52.530;13.390;2023-04-01T17:50:23;7.40;99.90
19728;DHT22;10015;52.530;13.390;2023-04-01T17:53:18;7.30;99.90
19728;DHT22;10015;52.530;13.390;2023-04-01T17:59:03;7.20;99.90
19728;DHT22;10015;52.530;13.390;2023-04-01T18:10:23;7.20;99.90
19728;DHT22;10015;52.530;13.390;2023-04-01T18:15:58;7.10;99.90
19728;DHT22;10015;52.530;13.390;2023-04-01T18:18:50;7.10;99.90
19728;DHT22;10015;52.530;13.390;2023-04-01T18:23:55;7.20;99.90
19728;DHT22;10015;52.530;13.390;2023-04-01T18:26:31;7.20;99.90
19728;DHT22;10015;52.530;13.390;2023-04-01T18:31:54;7.30;99.90
19728;DHT22;10015;52.530;13.390;2023-04-01T18:37:24;7.20;99.90
19728;DHT22;10015;52.530;13.390;2023-04-01T18:40:10;7.10;99.90
19728;DHT22;10015;52.530;13.390;2023-04-01T18:50:58;7.20;99.90
19728;DHT22;10015;52.530;13.390;2023-04-01T18:56:14;7.20;99.90
19728;DHT22;10015;52.530;13.390;2023-04-01T19:04:31;7.10;99.90
19728;DHT22;10015;52.530;13.390;2023-04-01T19:07:02;7.10;99.90
19728;DHT22;10015;52.530;13.390;2023-04-01T19:09:44;7.10;99.90
19728;DHT22;10015;52.530;13.390;2023-04-01T19:25:49;6.80;99.90
19728;DHT22;10015;52.530;13.390;2023-04-01T19:37:11;6.90;99.90
19728;DHT22;10015;52.530;13.390;2023-04-01T19:39:57;6.80;99.90
19728;DHT22;10015;52.530;13.390;2023-04-01T19:45:15;6.70;99.90
19728;DHT22;10015;52.530;13.390;2023-04-01T19:51:06;6.40;99.90
19728;DHT22;10015;52.530;13.390;2023-04-01T19:56:22;6.30;99.90
19728;DHT22;10015;52.530;13.390;2023-04-01T20:07:04;6.40;99.90
19728;DHT22;10015;52.530;13.390;2023-04-01T20:10:09;6.40;99.90
19728;DHT22;10015;52.530;13.390;2023-04-01T20:15:33;6.50;99.90
19728;DHT22;10015;52.530;13.390;2023-04-01T20:18:02;6.50;99.90
19728;DHT22;10015;52.530;13.390;2023-04-01T20:20:30;6.50;99.90
19728;DHT22;10015;52.530;13.390;2023-04-01T20:23:21;6.40;99.90
19728;DHT22;10015;52.530;13.390;2023-04-01T20:26:02;6.30;99.90
19728;DHT22;10015;52.530;13.390;2023-04-01T20:28:48;6.30;99.90
19728;DHT22;10015;52.530;13.390;2023-04-01T20:31:34;6.30;99.90
19728;DHT22;10015;52.530;13.390;2023-04-01T20:34:26;6.20;99.90
19728;DHT22;10015;52.530;13.390;2023-04-01T20:37:20;6.10;99.90
19728;DHT22;10015;52.530;13.390;2023-04-01T20:45:28;6.00;99.90
19728;DHT22;10015;52.530;13.390;2023-04-01T20:56:40;6.00;99.90
19728;DHT22;10015;52.530;13.390;2023-04-01T20:59:39;5.90;99.90
19728;DHT22;10015;52.530;13.390;2023-04-01T21:10:29;6.10;99.90
19728;DHT22;10015;52.530;13.390;2023-04-01T21:14:04;6.10;99.90
19728;DHT22;10015;52.530;13.390;2023-04-01T21:19:11;6.20;99.90
19728;DHT22;10015;52.530;13.390;2023-04-01T21:22:12;6.30;99.90
19728;DHT22;10015;52.530;13.390;2023-04-01T21:36:51;6.20;99.90
19728;DHT22;10015;52.530;13.390;2023-04-01T21:44:55;6.00;99.90
19728;DHT22;10015;52.530;13.390;2023-04-01T22:07:19;5.90;99.90
19728;DHT22;10015;52.530;13.390;2023-04-01T22:10:09;5.90;99.90
19728;DHT22;10015;52.530;13.390;2023-04-01T22:13:04;5.90;99.90
19728;DHT22;10015;52.530;13.390;2023-04-01T22:18:52;5.80;99.90
19728;DHT22;10015;52.530;13.390;2023-04-01T22:30:06;5.80;99.90
19728;DHT22;10015;52.530;13.390;2023-04-01T22:32:47;5.80;99.90
19728;DHT22;10015;52.530;13.390;2023-04-01T22:40:47;5.70;99.90
19728;DHT22;10015;52.530;13.390;2023-04-01T22:43:38;5.70;99.90
19728;DHT22;10015;52.530;13.390;2023-04-01T22:46:20;5.70;99.90
19728;DHT22;10015;52.530;13.390;2023-04-01T22:48:56;5.60;99.90
19728;DHT22;10015;52.530;13.390;2023-04-01T22:54:29;5.50;99.90
19728;DHT22;10015;52.530;13.390;2023-04-01T22:57:48;5.60;99.90
19728;DHT22;10015;52.530;13.390;2023-04-01T23:00:06;5.50;99.90
19728;DHT22;10015;52.530;13.390;2023-04-01T23:02:40;5.60;99.90
19728;DHT22;10015;52.530;13.390;2023-04-01T23:05:12;5.60;99.90
19728;DHT22;10015;52.530;13.390;2023-04-01T23:10:26;5.60;99.90
19728;DHT22;10015;52.530;13.390;2023-04-01T23:12:58;5.60;99.90
19728;DHT22;10015;52.530;13.390;2023-04-01T23:15:25;5.60;99.90
19728;DHT22;10015;52.530;13.390;2023-04-01T23:18:30;5.50;99.90
19728;DHT22;10015;52.530;13.390;2023-04-01T23:21:32;5.60;99.90
19728;DHT22;10015;52.530;13.390;2023-04-01T23:24:18;5.60;99.90
19728;DHT22;10015;52.530;13.390;2023-04-01T23:27:08;5.50;99.90
19728;DHT22;10015;52.530;13.390;2023-04-01T23:29:37;5.50;99.90
19728;DHT22;10015;52.530;13.390;2023-04-01T23:32:17;5.50;99.90
19728;DHT22;10015;52.530;13.390;2023-04-01T23:34:52;5.50;99.90
19728;DHT22;10015;52.530;13.390;2023-04-01T23:37:20;5.60;99.90
19728;DHT22;10015;52.530;13.390;2023-04-01T23:39:52;5.50;99.90
19728;DHT22;10015;52.530;13.390;2023-04-01T23:42:42;5.50;99.90
19728;DHT22;10015;52.530;13.390;2023-04-01T23:45:14;5.50;99.90
19728;DHT22;10015;52.530;13.390;2023-04-01T23:47:43;5.50;99.90
19728;DHT22;10015;52.530;13.390;2023-04-01T23:50:22;5.50;99.90
19728;DHT22;10015;52.530;13.390;2023-04-01T23:53:03;5.50;99.90
19728;DHT22;10015;52.530;13.390;2023-04-01T23:55:33;5.60;99.90
